Izki — V7XV2 — position and weather

sailwx.info

Track history (hours):
 
Tides and Currents Weather Stations Pressure Air Temp Water Temp Dewpoint Dewpoint Depression Visibility Wind Speed Wind Dir Waves Ship Positions

Izki

Last reported at 2018-Jan-27 15:59 UTC. Time now 2018-Feb-23 00:58 UTC.
Position N 07°20' W 015°40'.
Warning: this ship's position is 26 days out of date.

Length 333 m; draft 21.5 m.

Type: Tanker. MMSI: 538004578.

Date/timePositionNaut miles runAvg speedWind from/ knotsBaromVisibWave heightAir tempDewpointWater temp
2018-Jan-27 15:59N 07°20' W 015°40'613.2
2018-Jan-27 15:30N 07°25' W 015°44'1213.3
2018-Jan-27 14:37N 07°35' W 015°51'213.3
2018-Jan-27 14:26N 07°37' W 015°52'713.3
2018-Jan-27 13:56N 07°42' W 015°56'613.1
2018-Jan-27 13:30N 07°47' W 015°59'813.0
2018-Jan-27 12:52N 07°54' W 016°04'512.9
2018-Jan-27 12:30N 07°58' W 016°07'713.1
2018-Jan-27 12:00N 08°03' W 016°11'713.6
2018-Jan-27 11:31N 08°08' W 016°15'714.6
2018-Jan-27 11:00N 08°14' W 016°19'714.7
2018-Jan-27 10:30N 08°20' W 016°23'714.5
2018-Jan-27 10:00N 08°26' W 016°28'1114.7
2018-Jan-27 09:16N 08°35' W 016°34'414.0
2018-Jan-27 09:00N 08°38' W 016°36'713.4
2018-Jan-27 08:30N 08°44' W 016°40'1113.3
2018-Jan-27 07:41N 08°53' W 016°46'313.3
2018-Jan-27 07:30N 08°55' W 016°48'813.2
2018-Jan-27 06:53N 09°01' W 016°53'513.0
2018-Jan-27 06:30N 09°05' W 016°56'613.0
2018-Jan-27 06:00N 09°10' W 016°59'713.1
2018-Jan-27 05:30N 09°16' W 017°03'613.0
2018-Jan-27 05:00N 09°21' W 017°07'612.9
2018-Jan-27 04:31N 09°26' W 017°11'712.9
2018-Jan-27 04:00N 09°32' W 017°15'713.0
2018-Jan-27 03:28N 09°37' W 017°19'912.6
2018-Jan-27 02:48N 09°44' W 017°24'412.7
2018-Jan-27 02:30N 09°47' W 017°26'612.5
2018-Jan-27 01:59N 09°53' W 017°30'612.7
2018-Jan-27 01:30N 09°57' W 017°33'612.9
2018-Jan-27 01:00N 10°03' W 017°37'712.7
2018-Jan-27 00:29N 10°08' W 017°41'612.6
2018-Jan-27 00:00N 10°14' W 017°42'612.9
2018-Jan-26 23:30N 10°21' W 017°42'612.9
2018-Jan-26 23:00N 10°27' W 017°42'713.1
2018-Jan-26 22:30N 10°34' W 017°42'713.2
2018-Jan-26 22:00N 10°40' W 017°42'713.3
2018-Jan-26 21:30N 10°47' W 017°42'713.3
2018-Jan-26 21:00N 10°54' W 017°42'  
2018-Jan-23 12:29N 27°35' W 015°14'613.1
2018-Jan-23 12:00N 27°41' W 015°12'713.2
2018-Jan-23 11:30N 27°47' W 015°09'713.2
2018-Jan-23 11:00N 27°54' W 015°07'713.1
2018-Jan-23 10:30N 27°60' W 015°04'612.8
2018-Jan-23 10:00N 28°06' W 015°02'612.7
2018-Jan-23 09:30N 28°12' W 014°60'612.9
2018-Jan-23 09:00N 28°18' W 014°57'612.9
2018-Jan-23 08:30N 28°24' W 014°55'612.8
2018-Jan-23 08:00N 28°30' W 014°54'612.6
2018-Jan-23 07:30N 28°36' W 014°52'19412.7
2018-Jan-22 16:12N 31°45' W 013°59'212.3
2018-Jan-22 16:00N 31°47' W 013°59'10212.6
2018-Jan-22 07:55N 33°26' W 013°30'  
2018-Jan-18 14:30N 49°41' W 004°24'2412.1
2018-Jan-18 12:32N 49°55' W 003°54'012.6
2018-Jan-18 12:30N 49°55' W 003°53'612.6
2018-Jan-18 12:00N 49°59' W 003°45'612.4
2018-Jan-18 11:30N 50°03' W 003°37'612.0
2018-Jan-18 11:00N 50°06' W 003°30'612.0
2018-Jan-18 10:30N 50°12' W 003°28'611.7
2018-Jan-18 10:00N 50°18' W 003°26'5 9.4
2018-Jan-18 09:30N 50°22' W 003°24'2 5.0
2018-Jan-18 09:00N 50°25' W 003°24'4 8.6
2018-Jan-18 08:30N 50°24' W 003°18'510.0
2018-Jan-18 08:00N 50°23' W 003°10'510.3
2018-Jan-18 07:30N 50°23' W 003°02'5 9.8
2018-Jan-18 07:00N 50°23' W 002°54'5 9.5
2018-Jan-18 06:30N 50°22' W 002°47'5 9.1
2018-Jan-18 06:00N 50°22' W 002°40'5 9.1
2018-Jan-18 05:29N 50°21' W 002°33'5 9.4
2018-Jan-18 05:00N 50°21' W 002°26'5 9.9
2018-Jan-18 04:30N 50°21' W 002°18'2810.9
2018-Jan-18 01:55N 50°20' W 001°34'511.6
2018-Jan-18 01:30N 50°20' W 001°26'2211.0
2018-Jan-17 23:29N 50°23' W 000°52'  
Track history (hours):
 
Tides and Currents Weather Stations Pressure Air Temp Water Temp Dewpoint Dewpoint Depression Visibility Wind Speed Wind Dir Waves Ship Positions

Izki

Last reported at 2018-Jan-27 15:59 UTC. Time now 2018-Feb-23 00:58 UTC.
Position N 07°20' W 015°40'.
Warning: this ship's position is 26 days out of date.

Length 333 m; draft 21.5 m.

Type: Tanker. MMSI: 538004578.

Date/timePositionNaut miles runAvg speedWind from/ knotsBaromVisibWave heightAir tempDewpointWater temp
2018-Jan-27 15:59N 07°20' W 015°40'613.2
2018-Jan-27 15:30N 07°25' W 015°44'1213.3
2018-Jan-27 14:37N 07°35' W 015°51'213.3
2018-Jan-27 14:26N 07°37' W 015°52'713.3
2018-Jan-27 13:56N 07°42' W 015°56'613.1
2018-Jan-27 13:30N 07°47' W 015°59'813.0
2018-Jan-27 12:52N 07°54' W 016°04'512.9
2018-Jan-27 12:30N 07°58' W 016°07'713.1
2018-Jan-27 12:00N 08°03' W 016°11'713.6
2018-Jan-27 11:31N 08°08' W 016°15'714.6
2018-Jan-27 11:00N 08°14' W 016°19'714.7
2018-Jan-27 10:30N 08°20' W 016°23'714.5
2018-Jan-27 10:00N 08°26' W 016°28'1114.7
2018-Jan-27 09:16N 08°35' W 016°34'414.0
2018-Jan-27 09:00N 08°38' W 016°36'713.4
2018-Jan-27 08:30N 08°44' W 016°40'1113.3
2018-Jan-27 07:41N 08°53' W 016°46'313.3
2018-Jan-27 07:30N 08°55' W 016°48'813.2
2018-Jan-27 06:53N 09°01' W 016°53'513.0
2018-Jan-27 06:30N 09°05' W 016°56'613.0
2018-Jan-27 06:00N 09°10' W 016°59'713.1
2018-Jan-27 05:30N 09°16' W 017°03'613.0
2018-Jan-27 05:00N 09°21' W 017°07'612.9
2018-Jan-27 04:31N 09°26' W 017°11'712.9
2018-Jan-27 04:00N 09°32' W 017°15'713.0
2018-Jan-27 03:28N 09°37' W 017°19'912.6
2018-Jan-27 02:48N 09°44' W 017°24'412.7
2018-Jan-27 02:30N 09°47' W 017°26'612.5
2018-Jan-27 01:59N 09°53' W 017°30'612.7
2018-Jan-27 01:30N 09°57' W 017°33'612.9
2018-Jan-27 01:00N 10°03' W 017°37'712.7
2018-Jan-27 00:29N 10°08' W 017°41'612.6
2018-Jan-27 00:00N 10°14' W 017°42'612.9
2018-Jan-26 23:30N 10°21' W 017°42'612.9
2018-Jan-26 23:00N 10°27' W 017°42'713.1
2018-Jan-26 22:30N 10°34' W 017°42'713.2
2018-Jan-26 22:00N 10°40' W 017°42'713.3
2018-Jan-26 21:30N 10°47' W 017°42'713.3
2018-Jan-26 21:00N 10°54' W 017°42'  
2018-Jan-23 12:29N 27°35' W 015°14'613.1
2018-Jan-23 12:00N 27°41' W 015°12'713.2
2018-Jan-23 11:30N 27°47' W 015°09'713.2
2018-Jan-23 11:00N 27°54' W 015°07'713.1
2018-Jan-23 10:30N 27°60' W 015°04'612.8
2018-Jan-23 10:00N 28°06' W 015°02'612.7
2018-Jan-23 09:30N 28°12' W 014°60'612.9
2018-Jan-23 09:00N 28°18' W 014°57'612.9
2018-Jan-23 08:30N 28°24' W 014°55'612.8
2018-Jan-23 08:00N 28°30' W 014°54'612.6
2018-Jan-23 07:30N 28°36' W 014°52'19412.7
2018-Jan-22 16:12N 31°45' W 013°59'212.3
2018-Jan-22 16:00N 31°47' W 013°59'10212.6
2018-Jan-22 07:55N 33°26' W 013°30'  
2018-Jan-18 14:30N 49°41' W 004°24'2412.1
2018-Jan-18 12:32N 49°55' W 003°54'012.6
2018-Jan-18 12:30N 49°55' W 003°53'612.6
2018-Jan-18 12:00N 49°59' W 003°45'612.4
2018-Jan-18 11:30N 50°03' W 003°37'612.0
2018-Jan-18 11:00N 50°06' W 003°30'612.0
2018-Jan-18 10:30N 50°12' W 003°28'611.7
2018-Jan-18 10:00N 50°18' W 003°26'5 9.4
2018-Jan-18 09:30N 50°22' W 003°24'2 5.0
2018-Jan-18 09:00N 50°25' W 003°24'4 8.6
2018-Jan-18 08:30N 50°24' W 003°18'510.0
2018-Jan-18 08:00N 50°23' W 003°10'510.3
2018-Jan-18 07:30N 50°23' W 003°02'5 9.8
2018-Jan-18 07:00N 50°23' W 002°54'5 9.5
2018-Jan-18 06:30N 50°22' W 002°47'5 9.1
2018-Jan-18 06:00N 50°22' W 002°40'5 9.1
2018-Jan-18 05:29N 50°21' W 002°33'5 9.4
2018-Jan-18 05:00N 50°21' W 002°26'5 9.9
2018-Jan-18 04:30N 50°21' W 002°18'2810.9
2018-Jan-18 01:55N 50°20' W 001°34'511.6
2018-Jan-18 01:30N 50°20' W 001°26'2211.0
2018-Jan-17 23:29N 50°23' W 000°52'  

Dump ship's entire track history